createdAt,value
2018-01-15T00:01:23.505Z,13.75
2018-01-15T00:03:51.846Z,16.42
2018-01-15T00:06:20.165Z,13.77
2018-01-15T00:08:48.505Z,14.87
2018-01-15T00:11:16.837Z,12.75
2018-01-15T00:13:45.181Z,14.38
2018-01-15T00:16:13.501Z,17.40
2018-01-15T00:18:41.831Z,15.75
2018-01-15T00:21:10.179Z,15.77
2018-01-15T00:23:38.493Z,10.93
2018-01-15T00:26:06.848Z,10.32
2018-01-15T00:28:35.175Z,13.40
2018-01-15T00:31:03.529Z,10.85
2018-01-15T00:33:31.857Z,10.20
2018-01-15T00:36:00.221Z,10.75
2018-01-15T00:38:28.550Z,9.50
2018-01-15T00:40:56.894Z,11.02
2018-01-15T00:43:25.213Z,11.20
2018-01-15T00:45:53.549Z,17.33
2018-01-15T00:48:21.873Z,10.35
2018-01-15T00:50:50.217Z,13.10
2018-01-15T00:53:18.533Z,12.90
2018-01-15T00:55:46.874Z,7.87
2018-01-15T00:58:15.181Z,9.85
2018-01-15T01:00:43.513Z,8.55
2018-01-15T01:03:11.846Z,10.50
2018-01-15T01:05:40.181Z,8.25
2018-01-15T01:08:08.502Z,11.15
2018-01-15T01:10:36.837Z,8.82
2018-01-15T01:13:05.153Z,12.13
2018-01-15T01:15:33.493Z,11.95
2018-01-15T01:18:01.816Z,11.48
2018-01-15T01:20:30.202Z,11.27
2018-01-15T01:22:58.558Z,9.63
2018-01-15T01:25:27.026Z,13.30
2018-01-15T01:27:55.333Z,12.98
2018-01-15T01:30:23.694Z,14.60
2018-01-15T01:32:52.009Z,9.43
2018-01-15T01:35:20.341Z,21.37
2018-01-15T01:37:48.665Z,12.07
2018-01-15T01:40:17.010Z,20.40
2018-01-15T01:42:45.330Z,21.08
2018-01-15T01:45:13.669Z,12.40
2018-01-15T01:47:41.989Z,13.75
2018-01-15T01:50:10.329Z,14.35
2018-01-15T01:52:38.653Z,12.43
2018-01-15T01:55:06.994Z,13.32
2018-01-15T01:57:35.314Z,18.23
2018-01-15T02:00:03.681Z,13.88
2018-01-15T02:02:31.989Z,13.93
2018-01-15T02:05:00.346Z,13.68
2018-01-15T02:07:28.658Z,24.85
2018-01-15T02:09:57.001Z,13.68
2018-01-15T02:12:25.333Z,13.68
2018-01-15T02:14:53.852Z,11.77
2018-01-15T02:17:22.172Z,14.27
2018-01-15T02:19:50.497Z,19.00
2018-01-15T02:22:18.828Z,17.33
2018-01-15T02:24:47.149Z,12.55
2018-01-15T02:27:15.495Z,12.88
2018-01-15T02:29:43.805Z,12.85
2018-01-15T02:32:12.156Z,12.48
2018-01-15T02:34:40.478Z,14.63
2018-01-15T02:37:08.808Z,9.50
2018-01-15T02:39:37.129Z,15.57
2018-01-15T02:42:05.475Z,21.98
2018-01-15T02:44:33.802Z,12.88
2018-01-15T02:47:02.139Z,17.65
2018-01-15T02:49:30.457Z,14.77
2018-01-15T02:51:58.817Z,15.82
2018-01-15T02:54:27.137Z,14.95
2018-01-15T02:56:55.486Z,16.23
2018-01-15T02:59:23.805Z,13.90
2018-01-15T03:01:52.145Z,15.93
2018-01-15T03:04:20.457Z,12.30
2018-01-15T03:06:48.801Z,12.40
2018-01-15T03:09:17.120Z,14.90
2018-01-15T03:11:45.465Z,21.55
2018-01-15T03:14:13.810Z,13.45
2018-01-15T03:16:42.150Z,14.32
2018-01-15T03:19:10.474Z,14.50
2018-01-15T03:21:38.813Z,12.50
2018-01-15T03:24:07.128Z,13.80
2018-01-15T03:26:35.476Z,15.15
2018-01-15T03:29:03.799Z,15.35
2018-01-15T03:31:32.179Z,15.93
2018-01-15T03:34:00.481Z,16.23
2018-01-15T03:36:28.821Z,19.95
2018-01-15T03:38:57.142Z,13.62
2018-01-15T03:41:25.489Z,11.45
2018-01-15T03:43:53.805Z,13.98
2018-01-15T03:46:22.149Z,16.87
2018-01-15T03:48:50.469Z,18.60
2018-01-15T03:51:18.807Z,13.30
2018-01-15T03:53:47.158Z,12.30
2018-01-15T03:56:15.496Z,15.98
2018-01-15T03:58:43.814Z,15.25
2018-01-15T04:01:12.153Z,13.05
2018-01-15T04:03:40.517Z,13.62
2018-01-15T04:06:08.819Z,13.05
2018-01-15T04:08:37.143Z,12.57
2018-01-15T04:11:05.481Z,19.48
2018-01-15T04:13:33.801Z,12.27
2018-01-15T04:16:02.154Z,12.43
2018-01-15T04:18:30.475Z,12.77
2018-01-15T04:20:58.814Z,23.35
2018-01-15T04:23:27.152Z,19.83
2018-01-15T04:25:55.477Z,17.58
2018-01-15T04:28:23.814Z,16.73
2018-01-15T04:30:52.134Z,17.75
2018-01-15T04:33:20.484Z,20.52
2018-01-15T04:35:48.802Z,10.70
2018-01-15T04:38:17.142Z,15.82
2018-01-15T04:40:45.456Z,16.50
2018-01-15T04:43:13.802Z,15.10
2018-01-15T04:45:42.126Z,13.85
2018-01-15T04:48:10.465Z,13.15
2018-01-15T04:50:38.788Z,10.50
2018-01-15T04:53:07.130Z,17.70
2018-01-15T04:55:35.450Z,19.00
2018-01-15T04:58:03.806Z,22.42
2018-01-15T05:00:32.141Z,21.12
2018-01-15T05:03:00.536Z,24.00
2018-01-15T05:05:29.718Z,23.67
2018-01-15T05:07:58.057Z,16.20
2018-01-15T05:10:26.381Z,15.02
2018-01-15T05:12:54.749Z,17.20
2018-01-15T05:15:23.065Z,19.58
2018-01-15T05:17:51.413Z,26.10
2018-01-15T05:20:19.746Z,14.63
2018-01-15T05:22:48.087Z,32.38
2018-01-15T05:25:16.410Z,17.50
2018-01-15T05:27:44.761Z,17.52
2018-01-15T05:30:13.081Z,19.62
2018-01-15T05:32:41.425Z,16.30
2018-01-15T05:35:09.748Z,19.08
2018-01-15T05:37:38.098Z,15.95
2018-01-15T05:40:06.429Z,18.98
2018-01-15T05:42:34.769Z,19.37
2018-01-15T05:45:03.099Z,19.15
2018-01-15T05:47:31.441Z,19.23
2018-01-15T05:49:59.773Z,20.03
2018-01-15T05:52:28.117Z,19.30
2018-01-15T05:54:56.458Z,15.17
2018-01-15T05:57:24.809Z,24.60
2018-01-15T05:59:53.137Z,18.53
2018-01-15T06:02:21.481Z,23.57
2018-01-15T06:04:55.597Z,19.07
2018-01-15T06:07:24.015Z,20.60
2018-01-15T06:09:52.347Z,18.80
2018-01-15T06:12:20.694Z,19.23
2018-01-15T06:14:49.022Z,19.27
2018-01-15T06:17:17.702Z,17.48
2018-01-15T06:19:46.034Z,22.00
2018-01-15T06:22:14.386Z,15.37
2018-01-15T06:24:42.714Z,19.50
2018-01-15T06:27:11.041Z,17.60
2018-01-15T06:29:39.390Z,18.53
2018-01-15T06:32:07.722Z,17.30
2018-01-15T06:34:36.098Z,23.40
2018-01-15T06:37:04.438Z,25.62
2018-01-15T06:39:33.360Z,17.33
2018-01-15T06:42:01.681Z,17.23
2018-01-15T06:44:30.026Z,22.40
2018-01-15T06:46:58.377Z,17.40
2018-01-15T06:49:26.725Z,21.45
2018-01-15T06:51:55.058Z,21.17
2018-01-15T06:54:23.407Z,18.37
2018-01-15T06:56:51.727Z,18.80
2018-01-15T06:59:21.007Z,21.50
2018-01-15T07:01:49.328Z,24.40
2018-01-15T07:04:17.682Z,15.93
2018-01-15T07:06:46.049Z,22.30
2018-01-15T07:09:14.670Z,20.57
2018-01-15T07:11:43.006Z,31.93
2018-01-15T07:14:11.366Z,19.20
2018-01-15T07:16:39.781Z,21.03
2018-01-15T07:19:08.130Z,18.20
2018-01-15T07:21:36.455Z,19.83
2018-01-15T07:24:04.801Z,20.83
2018-01-15T07:26:33.131Z,15.70
2018-01-15T07:29:01.478Z,20.90
2018-01-15T07:31:29.811Z,19.43
2018-01-15T07:33:58.157Z,21.37
2018-01-15T07:36:26.499Z,19.60
2018-01-15T07:38:55.294Z,17.90
2018-01-15T07:41:23.626Z,24.90
2018-01-15T07:43:51.978Z,21.93
2018-01-15T07:46:20.303Z,17.10
2018-01-15T07:48:48.680Z,22.93
2018-01-15T07:51:17.121Z,19.00
2018-01-15T07:53:45.494Z,27.50
2018-01-15T07:56:13.808Z,22.83
2018-01-15T07:58:42.306Z,21.90
2018-01-15T08:01:10.633Z,25.30
2018-01-15T08:03:39.089Z,16.43
2018-01-15T08:06:07.485Z,30.23
2018-01-15T08:08:35.833Z,23.02
2018-01-15T08:11:04.166Z,31.27
2018-01-15T08:13:32.518Z,19.83
2018-01-15T08:16:00.841Z,27.73
2018-01-15T08:18:29.889Z,25.30
2018-01-15T08:20:58.226Z,21.73
2018-01-15T08:23:26.573Z,20.57
2018-01-15T08:25:54.935Z,25.58
2018-01-15T08:28:23.271Z,18.50
2018-01-15T08:30:51.648Z,21.73
2018-01-15T08:33:19.972Z,19.77
2018-01-15T08:35:48.322Z,22.37
2018-01-15T08:38:17.014Z,21.03
2018-01-15T08:40:45.363Z,21.80
2018-01-15T08:43:13.695Z,24.13
2018-01-15T08:45:42.055Z,17.90
2018-01-15T08:48:10.398Z,23.83
2018-01-15T08:50:38.802Z,25.33
2018-01-15T08:53:07.126Z,25.00
2018-01-15T08:55:35.490Z,24.57
2018-01-15T08:58:04.646Z,20.60
2018-01-15T09:00:33.016Z,29.07
2018-01-15T09:03:01.352Z,23.93
2018-01-15T09:05:29.714Z,21.80
2018-01-15T09:07:58.062Z,21.98
2018-01-15T09:10:26.422Z,23.10
2018-01-15T09:12:54.896Z,24.13
2018-01-15T09:15:23.256Z,28.77
2018-01-15T09:17:51.586Z,20.10
2018-01-15T09:20:19.946Z,21.30
2018-01-15T09:22:48.286Z,23.12
2018-01-15T09:25:16.647Z,19.03
2018-01-15T09:27:44.999Z,29.85
2018-01-15T09:30:13.486Z,21.90
2018-01-15T09:32:41.864Z,19.73
2018-01-15T09:35:10.293Z,31.20
2018-01-15T09:37:38.658Z,23.58
2018-01-15T09:40:07.077Z,23.93
2018-01-15T09:42:35.444Z,26.57
2018-01-15T09:45:03.808Z,27.27
2018-01-15T09:47:32.194Z,26.33
2018-01-15T09:50:00.554Z,24.35
2018-01-15T09:52:28.881Z,22.45
2018-01-15T09:54:57.360Z,23.63
2018-01-15T09:57:25.699Z,26.33
2018-01-15T09:59:54.070Z,26.95
2018-01-15T10:02:22.386Z,21.33
2018-01-15T10:04:50.816Z,28.23
2018-01-15T10:07:19.206Z,22.17
2018-01-15T10:09:47.598Z,36.13
2018-01-15T10:12:15.935Z,23.77
2018-01-15T10:14:44.329Z,24.83
2018-01-15T10:17:12.654Z,31.50
2018-01-15T10:19:41.082Z,27.60
2018-01-15T10:22:09.490Z,31.87
2018-01-15T10:24:37.841Z,24.80
2018-01-15T10:27:06.362Z,25.43
2018-01-15T10:29:34.801Z,28.75
2018-01-15T10:32:03.137Z,26.30
2018-01-15T10:34:31.474Z,22.53
2018-01-15T10:37:00.656Z,29.30
2018-01-15T10:39:29.022Z,27.27
2018-01-15T10:41:57.400Z,26.60
2018-01-15T10:44:25.750Z,31.47
2018-01-15T10:46:54.183Z,26.43
2018-01-15T10:49:22.526Z,32.83
2018-01-15T10:51:50.923Z,38.25
2018-01-15T10:54:19.275Z,26.50
2018-01-15T10:56:47.650Z,31.40
2018-01-15T10:59:15.969Z,29.83
2018-01-15T11:01:44.406Z,34.43
2018-01-15T11:04:12.721Z,33.60
2018-01-15T11:06:41.069Z,24.17
2018-01-15T11:09:09.421Z,33.30
2018-01-15T11:11:37.838Z,26.63
2018-01-15T11:14:06.178Z,25.75
2018-01-15T11:16:35.666Z,32.47
2018-01-15T11:19:04.067Z,30.33
2018-01-15T11:21:33.402Z,27.57
2018-01-15T11:24:01.813Z,28.87
2018-01-15T11:26:30.211Z,25.65
2018-01-15T11:28:58.541Z,30.83
2018-01-15T11:31:26.894Z,31.97
2018-01-15T11:33:55.234Z,33.40
2018-01-15T11:36:23.641Z,29.40
2018-01-15T11:38:51.965Z,28.80
2018-01-15T11:41:20.318Z,30.17
2018-01-15T11:43:48.641Z,31.20
2018-01-15T11:46:16.989Z,29.53
2018-01-15T11:48:45.321Z,30.90
2018-01-15T11:51:13.681Z,26.15
2018-01-15T11:53:42.015Z,26.03
2018-01-15T11:56:10.371Z,30.58
2018-01-15T11:58:38.707Z,33.60
2018-01-15T12:01:07.053Z,30.47
2018-01-15T12:03:35.384Z,33.33
2018-01-15T12:06:03.741Z,27.23
2018-01-15T12:08:32.069Z,34.07
2018-01-15T12:11:00.434Z,24.30
2018-01-15T12:13:28.762Z,42.07
2018-01-15T12:15:57.113Z,32.17
2018-01-15T12:18:25.449Z,33.20
2018-01-15T12:20:53.807Z,26.80
2018-01-15T12:23:22.133Z,38.05
2018-01-15T12:25:50.490Z,36.67
2018-01-15T12:28:18.825Z,27.95
2018-01-15T12:30:47.220Z,30.62
2018-01-15T12:33:15.534Z,23.47
2018-01-15T12:35:43.951Z,28.27
2018-01-15T12:38:12.328Z,31.53
2018-01-15T12:40:40.643Z,21.50
2018-01-15T12:43:08.998Z,27.48
2018-01-15T12:45:37.451Z,28.35
2018-01-15T12:48:05.780Z,23.70
2018-01-15T12:50:34.179Z,32.27
2018-01-15T12:53:02.531Z,23.60
2018-01-15T12:55:30.857Z,22.50
2018-01-15T12:57:59.206Z,32.95
2018-01-15T13:00:28.518Z,20.83
2018-01-15T13:02:57.121Z,32.50
2018-01-15T13:05:37.341Z,21.50
2018-01-15T13:11:07.417Z,24.20
2018-01-15T13:13:35.765Z,21.73
2018-01-15T13:16:04.137Z,24.00
2018-01-15T13:18:32.477Z,34.27
2018-01-15T13:21:00.799Z,28.23
2018-01-15T13:23:29.169Z,26.58
2018-01-15T13:25:57.550Z,27.20
2018-01-15T13:28:25.892Z,21.30
2018-01-15T13:30:54.208Z,23.00
2018-01-15T13:33:22.635Z,24.27
2018-01-15T13:35:51.668Z,25.27
2018-01-15T13:38:20.000Z,29.95
2018-01-15T13:40:48.325Z,32.93
2018-01-15T13:43:16.697Z,27.93
2018-01-15T13:45:45.024Z,32.97
2018-01-15T13:48:13.373Z,32.67
2018-01-15T13:50:41.682Z,28.70
2018-01-15T13:53:10.016Z,31.80
2018-01-15T13:55:38.342Z,26.83
2018-01-15T13:58:06.702Z,25.85
2018-01-15T14:00:35.034Z,22.67
2018-01-15T14:03:03.381Z,28.10
2018-01-15T14:05:31.710Z,23.55
2018-01-15T14:08:00.054Z,26.67
2018-01-15T14:10:28.380Z,26.60
2018-01-15T14:12:56.721Z,25.85
2018-01-15T14:15:25.045Z,23.50
2018-01-15T14:17:53.381Z,24.40
2018-01-15T14:20:21.705Z,22.33
2018-01-15T14:22:50.041Z,27.50
2018-01-15T14:25:18.389Z,31.43
2018-01-15T14:27:46.778Z,33.10
2018-01-15T14:30:15.106Z,26.13
2018-01-15T14:32:43.559Z,24.10
2018-01-15T14:35:11.837Z,36.80
2018-01-15T14:37:40.277Z,18.87
2018-01-15T14:40:08.600Z,26.45
2018-01-15T14:42:36.941Z,29.47
2018-01-15T14:45:05.270Z,22.57
2018-01-15T14:47:33.618Z,25.13
2018-01-15T14:50:01.947Z,39.23
2018-01-15T14:52:30.394Z,21.77
2018-01-15T14:54:58.717Z,32.90
2018-01-15T14:57:27.083Z,22.13
2018-01-15T14:59:55.408Z,25.27
2018-01-15T15:02:24.411Z,26.30
2018-01-15T15:04:52.739Z,25.03
2018-01-15T15:07:21.171Z,23.53
2018-01-15T15:09:49.489Z,35.38
2018-01-15T15:12:17.834Z,29.27
2018-01-15T15:14:46.181Z,33.95
2018-01-15T15:17:14.501Z,22.50
2018-01-15T15:19:42.960Z,27.13
2018-01-15T15:22:11.289Z,32.00
2018-01-15T15:24:39.625Z,26.47
2018-01-15T15:27:07.974Z,27.80
2018-01-15T15:29:36.377Z,23.67
2018-01-15T15:32:04.705Z,32.38
2018-01-15T15:34:33.037Z,25.73
2018-01-15T15:37:01.370Z,22.53
2018-01-15T15:39:29.808Z,28.20
2018-01-15T15:41:58.744Z,31.30
2018-01-15T15:44:27.091Z,27.67
2018-01-15T15:46:55.412Z,27.50
2018-01-15T15:49:23.752Z,20.33
2018-01-15T15:51:52.093Z,19.70
2018-01-15T15:54:20.425Z,28.93
2018-01-15T15:56:48.745Z,28.90
2018-01-15T15:59:17.101Z,26.10
2018-01-15T16:01:45.444Z,27.10
2018-01-15T16:04:13.888Z,27.37
2018-01-15T16:06:42.209Z,27.97
2018-01-15T16:09:10.553Z,27.52
2018-01-15T16:11:38.917Z,24.00
2018-01-15T16:14:07.320Z,24.63
2018-01-15T16:16:35.633Z,24.98
2018-01-15T16:19:05.025Z,20.07
2018-01-15T16:21:35.383Z,26.90
2018-01-15T16:24:03.777Z,21.25
2018-01-15T16:26:32.153Z,34.17
2018-01-15T16:29:00.534Z,27.93
2018-01-15T16:31:29.621Z,21.05
2018-01-15T16:33:58.006Z,28.62
2018-01-15T16:36:26.388Z,30.13
2018-01-15T16:38:55.013Z,29.80
2018-01-15T16:41:23.329Z,29.63
2018-01-15T16:43:52.620Z,36.03
2018-01-15T16:46:20.941Z,23.83
2018-01-15T16:48:49.289Z,27.33
2018-01-15T16:51:17.633Z,30.40
2018-01-15T16:53:45.953Z,22.00
2018-01-15T16:56:14.299Z,35.70
2018-01-15T16:58:43.611Z,28.97
2018-01-15T17:01:11.997Z,25.42
2018-01-15T17:03:40.337Z,22.70
2018-01-15T17:06:08.684Z,22.57
2018-01-15T17:08:37.018Z,24.42
2018-01-15T17:11:05.377Z,38.30
2018-01-15T17:13:33.697Z,24.27
2018-01-15T17:16:02.093Z,29.33
2018-01-15T17:18:30.421Z,20.50
2018-01-15T17:20:58.761Z,18.15
2018-01-15T17:23:27.080Z,16.93
2018-01-15T17:25:55.460Z,19.80
2018-01-15T17:28:23.770Z,18.80
2018-01-15T17:30:52.213Z,17.17
2018-01-15T17:33:20.531Z,17.37
2018-01-15T17:35:49.864Z,14.33
2018-01-15T17:38:18.271Z,16.48
2018-01-15T17:40:46.647Z,16.60
2018-01-15T17:43:15.022Z,11.65
2018-01-15T17:45:43.402Z,15.47
2018-01-15T17:48:12.721Z,15.36
2018-01-15T17:50:41.057Z,32.57
2018-01-15T17:53:09.380Z,14.60
2018-01-15T17:55:37.717Z,14.38
2018-01-15T17:58:06.057Z,14.23
2018-01-15T18:00:34.385Z,13.18
2018-01-15T18:03:02.738Z,15.10
2018-01-15T18:05:31.129Z,14.40
2018-01-15T18:07:59.441Z,17.73
2018-01-15T18:10:27.777Z,14.23
2018-01-15T18:12:56.098Z,18.70
2018-01-15T18:15:24.537Z,15.23
2018-01-15T18:17:52.866Z,13.67
2018-01-15T18:20:21.193Z,9.73
2018-01-15T18:22:49.504Z,15.17
2018-01-15T18:25:17.943Z,8.40
2018-01-15T18:27:47.074Z,8.10
2018-01-15T18:30:15.513Z,10.30
2018-01-15T18:32:43.829Z,8.10
2018-01-15T18:35:12.165Z,11.00
2018-01-15T18:37:40.486Z,10.30
2018-01-15T18:40:08.841Z,10.03
2018-01-15T18:42:37.231Z,18.02
2018-01-15T18:45:05.641Z,13.77
2018-01-15T18:47:34.314Z,7.70
2018-01-15T18:50:02.637Z,13.00
2018-01-15T18:52:30.981Z,14.50
2018-01-15T18:54:59.495Z,13.77
2018-01-15T18:57:27.913Z,13.55
2018-01-15T18:59:56.989Z,12.57
2018-01-15T19:02:25.317Z,10.53
2018-01-15T19:04:53.721Z,10.80
2018-01-15T19:07:22.072Z,9.33
2018-01-15T19:09:50.480Z,14.53
2018-01-15T19:12:18.807Z,8.00
2018-01-15T19:14:47.128Z,11.67
2018-01-15T19:17:15.467Z,8.23
2018-01-15T19:19:43.898Z,6.77
2018-01-15T19:22:12.245Z,9.70
2018-01-15T19:24:40.610Z,13.20
2018-01-15T19:27:08.954Z,9.40
2018-01-15T19:29:37.262Z,7.00
2018-01-15T19:32:05.610Z,10.40
